Time;durP1;ratioP1;P1;durP2;ratioP2;P2;SDS_P1;SDS_P2;PMS_P1;PMS_P2;Temp;Humidity;BMP_temperature;BMP_pressure;BME280_temperature;BME280_humidity;BME280_pressure;Samples;Min_cycle;Max_cycle;Signal;HPM_P1;HPM_P2
2023/03/02 00:00:50;;;;;;;77.90;31.83;;;-0.50;99.90;;;;;;5051236;28;20035;-83
2023/03/02 00:03:17;;;;;;;74.78;31.77;;;-0.40;99.90;;;;;;5084610;28;20025;-82
2023/03/02 00:05:45;;;;;;;75.22;32.00;;;-0.40;99.90;;;;;;5034707;28;20029;-83
2023/03/02 00:08:15;;;;;;;70.55;29.58;;;-0.50;99.90;;;;;;5033759;28;20078;-83
2023/03/02 00:10:40;;;;;;;75.03;29.10;;;-0.50;99.90;;;;;;5050794;28;20129;-82
2023/03/02 00:13:06;;;;;;;77.85;30.60;;;-0.60;99.90;;;;;;5034519;28;20060;-83
2023/03/02 00:15:32;;;;;;;79.78;34.00;;;-0.70;99.90;;;;;;5034489;28;20055;-82
2023/03/02 00:17:57;;;;;;;73.30;31.33;;;-0.70;99.90;;;;;;5034634;28;20037;-83
2023/03/02 00:20:23;;;;;;;73.18;30.13;;;-0.70;99.90;;;;;;5033855;28;20044;-82
2023/03/02 00:22:49;;;;;;;70.45;29.05;;;-0.80;99.90;;;;;;5034314;28;20086;-82
2023/03/02 00:25:16;;;;;;;65.78;30.10;;;-0.80;99.90;;;;;;5034409;28;20033;-82
2023/03/02 00:27:42;;;;;;;78.40;32.28;;;-0.90;99.90;;;;;;5040536;28;20380;-83
2023/03/02 00:30:10;;;;;;;76.05;31.23;;;-0.90;99.90;;;;;;5047825;28;20128;-83
2023/03/02 00:32:35;;;;;;;72.40;29.70;;;-0.80;99.90;;;;;;5062181;28;20489;-82
2023/03/02 00:35:01;;;;;;;74.75;31.80;;;-0.80;99.90;;;;;;5046807;28;20136;-82
2023/03/02 00:37:27;;;;;;;67.95;29.98;;;-0.90;99.90;;;;;;5034363;28;20064;-82
2023/03/02 00:39:53;;;;;;;75.15;31.35;;;-0.90;99.90;;;;;;5033768;28;20056;-82
2023/03/02 00:42:20;;;;;;;77.68;30.45;;;-0.90;99.90;;;;;;5034024;28;20079;-83
2023/03/02 00:44:45;;;;;;;85.15;33.58;;;-1.00;99.90;;;;;;5050254;28;20116;-83
2023/03/02 00:47:12;;;;;;;83.38;34.03;;;-1.00;99.90;;;;;;5033624;28;20136;-82
2023/03/02 00:49:37;;;;;;;81.05;32.53;;;-1.00;99.90;;;;;;5033895;28;20052;-83
2023/03/02 00:52:04;;;;;;;76.32;30.27;;;-1.00;99.90;;;;;;5050560;28;20139;-82
2023/03/02 00:54:30;;;;;;;76.25;31.42;;;-1.00;99.90;;;;;;5033736;28;20036;-82
2023/03/02 00:56:56;;;;;;;75.68;30.92;;;-1.00;99.90;;;;;;5034049;28;20029;-83
2023/03/02 00:59:28;;;;;;;73.32;31.60;;;-1.00;99.90;;;;;;5050375;28;20025;-83
2023/03/02 01:02:20;;;;;;;71.13;30.92;;;-1.00;99.90;;;;;;5042335;28;20482;-82
2023/03/02 01:04:47;;;;;;;77.78;31.52;;;-1.00;99.90;;;;;;5033753;28;20583;-83
2023/03/02 01:07:15;;;;;;;75.05;32.22;;;-1.00;99.90;;;;;;5033358;28;20025;-83
2023/03/02 01:09:43;;;;;;;73.28;30.23;;;-1.00;99.90;;;;;;5083820;28;20029;-82
2023/03/02 01:12:10;;;;;;;83.57;32.97;;;-1.00;99.90;;;;;;5067073;28;20061;-83
2023/03/02 01:14:41;;;;;;;78.97;33.22;;;-0.90;99.90;;;;;;5050101;28;20029;-82
2023/03/02 01:17:08;;;;;;;68.95;30.67;;;-0.90;99.90;;;;;;5050380;28;20060;-83
2023/03/02 01:19:34;;;;;;;71.82;31.92;;;-1.00;99.90;;;;;;5050083;28;20075;-82
2023/03/02 01:22:00;;;;;;;77.68;31.38;;;-1.00;99.90;;;;;;5051323;28;20099;-82
2023/03/02 01:24:26;;;;;;;73.22;30.90;;;-1.00;99.90;;;;;;5070281;28;20041;-83
2023/03/02 01:26:52;;;;;;;76.75;31.95;;;-1.00;99.90;;;;;;5065105;28;20037;-83
2023/03/02 01:29:18;;;;;;;76.13;31.35;;;-1.00;99.90;;;;;;5051015;28;20033;-83
2023/03/02 01:31:43;;;;;;;77.75;32.58;;;-1.00;99.90;;;;;;5037278;28;20033;-82
2023/03/02 01:34:09;;;;;;;78.65;32.45;;;-1.10;99.90;;;;;;5036918;28;20035;-83
2023/03/02 01:36:35;;;;;;;78.95;32.28;;;-1.10;99.90;;;;;;5053372;28;20036;-82
2023/03/02 01:39:01;;;;;;;77.82;31.63;;;-1.10;99.90;;;;;;5054680;28;20029;-82
2023/03/02 01:41:27;;;;;;;78.55;32.17;;;-1.20;99.90;;;;;;5069837;28;20461;-82
2023/03/02 01:43:53;;;;;;;82.13;34.03;;;-1.30;99.90;;;;;;5053436;28;20033;-82
2023/03/02 01:46:20;;;;;;;77.53;32.22;;;-1.20;99.90;;;;;;5036512;28;20025;-82
2023/03/02 01:49:13;;;;;;;75.25;33.15;;;-1.10;99.90;;;;;;5037312;28;20086;-82
2023/03/02 01:51:53;;;;;;;75.85;30.00;;;-1.20;99.90;;;;;;5052857;28;20082;-83
2023/03/02 01:54:21;;;;;;;77.55;31.15;;;-1.20;99.90;;;;;;5036352;28;20029;-82
2023/03/02 01:56:53;;;;;;;74.55;32.13;;;-1.10;99.90;;;;;;5053493;28;20024;-82
2023/03/02 01:59:21;;;;;;;79.85;31.73;;;-1.10;99.90;;;;;;5036484;28;20498;-82
2023/03/02 02:01:51;;;;;;;77.90;33.40;;;-1.10;99.90;;;;;;5036767;28;20079;-82
2023/03/02 02:04:18;;;;;;;75.68;30.67;;;-1.10;99.90;;;;;;5036821;28;20034;-82
2023/03/02 02:06:49;;;;;;;78.30;32.42;;;-1.20;99.90;;;;;;5053372;28;20025;-82
2023/03/02 02:09:18;;;;;;;76.38;31.15;;;-1.20;99.90;;;;;;5046392;28;20440;-82
2023/03/02 02:11:44;;;;;;;74.18;31.00;;;-1.20;99.90;;;;;;5049875;28;20108;-83
2023/03/02 02:14:11;;;;;;;78.90;30.95;;;-1.30;99.90;;;;;;5035771;28;20036;-82
2023/03/02 02:16:37;;;;;;;75.68;31.02;;;-1.30;99.90;;;;;;5052043;28;20115;-82
2023/03/02 02:19:11;;;;;;;74.45;30.75;;;-1.20;99.90;;;;;;5052614;28;20029;-83
2023/03/02 02:21:37;;;;;;;86.03;31.33;;;-1.20;99.90;;;;;;5052516;28;20028;-82
2023/03/02 02:24:20;;;;;;;87.30;33.72;;;-1.20;99.90;;;;;;5043127;28;20112;-82
2023/03/02 02:26:52;;;;;;;76.15;30.15;;;-1.20;99.90;;;;;;5061612;28;20044;-82
2023/03/02 02:29:53;;;;;;;74.80;29.65;;;-1.20;99.90;;;;;;5052279;28;20396;-82
2023/03/02 02:32:26;;;;;;;73.95;30.23;;;-1.20;99.90;;;;;;5036790;28;20029;-82
2023/03/02 02:35:01;;;;;;;77.28;32.10;;;-1.20;99.90;;;;;;5035560;28;20029;-82
2023/03/02 02:37:38;;;;;;;84.28;31.60;;;-1.30;99.90;;;;;;5085832;28;20057;-83
2023/03/02 02:40:15;;;;;;;73.00;30.02;;;-1.30;99.90;;;;;;5060326;28;20022;-83
2023/03/02 02:42:44;;;;;;;81.70;32.33;;;-1.30;99.90;;;;;;5052188;28;20582;-82
2023/03/02 02:45:31;;;;;;;75.88;29.65;;;-1.30;99.90;;;;;;5036056;28;20017;-82
2023/03/02 02:47:56;;;;;;;79.63;33.15;;;-1.30;99.90;;;;;;5061183;28;20029;-82
2023/03/02 02:50:34;;;;;;;85.13;31.77;;;-1.30;99.90;;;;;;5058285;28;20220;-82
2023/03/02 02:53:05;;;;;;;73.63;29.70;;;-1.20;99.90;;;;;;5035822;28;20039;-82
2023/03/02 02:55:33;;;;;;;75.10;30.20;;;-1.30;99.90;;;;;;5035876;28;20392;-83
2023/03/02 02:58:08;;;;;;;80.32;29.85;;;-1.30;99.90;;;;;;5052485;28;20095;-82
2023/03/02 03:00:36;;;;;;;75.53;29.38;;;-1.30;99.90;;;;;;5033925;28;20029;-83
2023/03/02 03:03:29;;;;;;;73.75;29.48;;;-1.30;99.90;;;;;;5035029;28;20443;-82
2023/03/02 03:05:59;;;;;;;72.38;29.05;;;-1.20;99.90;;;;;;5035440;28;20035;-83
2023/03/02 03:08:44;;;;;;;82.47;31.25;;;-1.20;99.90;;;;;;5036249;28;20032;-87
2023/03/02 03:11:25;;;;;;;77.13;30.65;;;-1.20;99.90;;;;;;5049515;28;20025;-87
2023/03/02 03:14:04;;;;;;;72.78;30.38;;;-1.30;99.90;;;;;;5036581;28;20082;-86
2023/03/02 03:16:31;;;;;;;75.60;30.27;;;-1.30;99.90;;;;;;5069859;28;20052;-88
2023/03/02 03:19:04;;;;;;;79.47;31.65;;;-1.30;99.90;;;;;;5036898;28;20465;-87
2023/03/02 03:21:30;;;;;;;65.65;29.58;;;-1.40;99.90;;;;;;5036418;28;20025;-87
2023/03/02 03:23:55;;;;;;;71.07;30.10;;;-1.40;99.90;;;;;;5052927;28;20025;-87
2023/03/02 03:26:21;;;;;;;68.05;29.15;;;-1.40;99.90;;;;;;5036635;28;20025;-87
2023/03/02 03:28:47;;;;;;;76.70;30.35;;;-1.40;99.90;;;;;;5052885;28;20376;-87
2023/03/02 03:31:13;;;;;;;80.53;31.23;;;-1.40;99.90;;;;;;5033565;28;20022;-88
2023/03/02 03:33:39;;;;;;;75.28;29.58;;;-1.40;99.90;;;;;;5036157;28;20025;-88
2023/03/02 03:36:05;;;;;;;68.57;28.48;;;-1.50;99.90;;;;;;5052808;28;20025;-87
2023/03/02 03:38:31;;;;;;;78.55;29.73;;;-1.50;99.90;;;;;;5036359;28;20024;-87
2023/03/02 03:40:57;;;;;;;75.15;31.27;;;-1.50;99.90;;;;;;5036062;28;20025;-87
2023/03/02 03:43:22;;;;;;;78.88;31.15;;;-1.40;99.90;;;;;;5035423;28;20399;-82
2023/03/02 03:45:51;;;;;;;74.68;30.35;;;-1.40;99.90;;;;;;5050806;28;20029;-82
2023/03/02 03:48:18;;;;;;;73.47;29.05;;;-1.30;99.90;;;;;;5051084;28;20032;-82
2023/03/02 03:50:45;;;;;;;76.75;29.75;;;-1.30;99.90;;;;;;5034651;28;20029;-82
2023/03/02 03:53:11;;;;;;;71.72;29.42;;;-1.30;99.90;;;;;;5034558;28;20024;-82
2023/03/02 03:55:37;;;;;;;72.22;29.48;;;-1.30;99.90;;;;;;5033337;28;20436;-82
2023/03/02 03:58:04;;;;;;;75.13;30.65;;;-1.30;99.90;;;;;;5034404;28;20465;-82
2023/03/02 04:00:29;;;;;;;71.70;29.92;;;-1.40;99.90;;;;;;5032054;28;20048;-82
2023/03/02 04:03:01;;;;;;;66.68;27.65;;;-1.30;99.90;;;;;;5035197;28;20033;-82
2023/03/02 04:06:22;;;;;;;68.45;29.73;;;-1.30;99.90;;;;;;5050687;28;20538;-82
2023/03/02 04:08:47;;;;;;;67.28;28.73;;;-1.30;99.90;;;;;;5034183;28;20033;-82
2023/03/02 04:11:13;;;;;;;67.95;27.92;;;-1.20;99.90;;;;;;5050790;28;20396;-82
2023/03/02 04:13:39;;;;;;;69.43;29.13;;;-1.30;99.90;;;;;;5033582;28;20067;-82
2023/03/02 04:16:05;;;;;;;72.13;28.98;;;-1.30;99.90;;;;;;5051191;28;20018;-82
2023/03/02 04:18:30;;;;;;;73.47;29.70;;;-1.40;99.90;;;;;;5050755;28;20392;-82
2023/03/02 04:20:56;;;;;;;76.22;29.05;;;-1.40;99.90;;;;;;5031532;28;20021;-82
2023/03/02 04:23:22;;;;;;;77.25;29.70;;;-1.40;99.90;;;;;;5064579;28;20025;-82
2023/03/02 04:25:48;;;;;;;74.70;28.73;;;-1.30;99.90;;;;;;5059729;28;20442;-83
2023/03/02 04:28:18;;;;;;;74.57;29.10;;;-1.30;99.90;;;;;;5035420;28;20121;-83
2023/03/02 04:30:44;;;;;;;77.85;29.30;;;-1.30;99.90;;;;;;5050808;28;20025;-82
2023/03/02 04:33:10;;;;;;;72.70;29.52;;;-1.30;99.90;;;;;;5034609;28;20039;-83
2023/03/02 04:35:36;;;;;;;67.10;27.35;;;-1.30;99.90;;;;;;5050710;28;20028;-83
2023/03/02 04:38:02;;;;;;;72.63;28.77;;;-1.40;99.90;;;;;;5034205;28;20052;-82
2023/03/02 04:40:28;;;;;;;73.53;29.48;;;-1.40;99.90;;;;;;5050371;28;20056;-82
2023/03/02 04:42:54;;;;;;;71.22;29.20;;;-1.40;99.90;;;;;;5033948;28;20028;-83
2023/03/02 04:45:19;;;;;;;74.15;29.13;;;-1.50;99.90;;;;;;5052223;28;20020;-82
2023/03/02 04:47:45;;;;;;;76.80;30.05;;;-1.40;99.90;;;;;;5034120;28;20036;-82
2023/03/02 04:50:13;;;;;;;66.65;27.85;;;-1.30;99.90;;;;;;5034048;28;20021;-82
2023/03/02 04:52:39;;;;;;;66.75;28.00;;;-1.40;99.90;;;;;;5034218;28;20116;-82
2023/03/02 04:55:05;;;;;;;69.03;26.98;;;-1.40;99.90;;;;;;5050504;28;20039;-82
2023/03/02 04:57:31;;;;;;;74.50;30.42;;;-1.50;99.90;;;;;;5052437;28;20025;-83
2023/03/02 04:59:57;;;;;;;70.95;28.80;;;-1.50;99.90;;;;;;5034702;28;20036;-82
2023/03/02 05:03:00;;;;;;;60.80;27.33;;;-1.50;99.90;;;;;;5037519;28;20375;-83
2023/03/02 05:05:27;;;;;;;73.57;28.88;;;-1.50;99.90;;;;;;5054144;28;20028;-82
2023/03/02 05:07:53;;;;;;;66.18;27.35;;;-1.50;99.90;;;;;;5034796;28;20052;-83
2023/03/02 05:10:21;;;;;;;66.95;27.63;;;-1.50;99.90;;;;;;5037483;28;20033;-82
2023/03/02 05:13:03;;;;;;;72.32;29.42;;;-1.50;99.90;;;;;;5037547;28;20056;-82
2023/03/02 05:15:38;;;;;;;69.45;30.35;;;-1.40;99.90;;;;;;5055063;28;20115;-82
2023/03/02 05:18:07;;;;;;;71.68;28.00;;;-1.40;99.90;;;;;;5055262;28;20051;-82
2023/03/02 05:21:22;;;;;;;68.82;26.83;;;-1.40;99.90;;;;;;5037473;28;20055;-82
2023/03/02 05:23:48;;;;;;;69.65;27.33;;;-1.30;99.90;;;;;;5036957;28;20040;-82
2023/03/02 05:26:14;;;;;;;72.75;28.15;;;-1.30;99.90;;;;;;5037061;28;20029;-82
2023/03/02 05:28:40;;;;;;;63.92;27.50;;;-1.30;99.90;;;;;;5069973;28;20029;-82
2023/03/02 05:31:06;;;;;;;69.07;26.25;;;-1.20;99.90;;;;;;5053595;28;20078;-82
2023/03/02 05:33:32;;;;;;;64.32;27.77;;;-1.20;99.90;;;;;;5036894;28;20047;-82
2023/03/02 05:35:58;;;;;;;78.15;27.45;;;-1.20;99.90;;;;;;5053689;28;20033;-82
2023/03/02 05:38:26;;;;;;;69.82;26.85;;;-1.30;99.90;;;;;;5036744;28;20029;-83
2023/03/02 05:40:52;;;;;;;68.28;28.10;;;-1.30;99.90;;;;;;5087456;28;20032;-83
2023/03/02 05:43:20;;;;;;;71.00;28.88;;;-1.30;99.90;;;;;;5053554;28;20116;-83
2023/03/02 05:45:46;;;;;;;70.30;28.67;;;-1.40;99.90;;;;;;5037297;28;20436;-82
2023/03/02 05:48:12;;;;;;;69.82;27.58;;;-1.40;99.90;;;;;;5047408;28;20061;-82
2023/03/02 05:51:06;;;;;;;64.88;26.73;;;-1.50;99.90;;;;;;5035053;28;20381;-82
2023/03/02 05:53:32;;;;;;;66.40;27.77;;;-1.40;99.90;;;;;;5040824;28;20412;-82
2023/03/02 05:55:57;;;;;;;75.63;30.15;;;-1.30;99.90;;;;;;5037147;28;20067;-83
2023/03/02 05:58:23;;;;;;;73.93;28.92;;;-1.40;99.90;;;;;;5053482;28;20036;-82
2023/03/02 06:00:49;;;;;;;75.65;28.98;;;-1.40;99.90;;;;;;5037037;28;20021;-82
2023/03/02 06:03:15;;;;;;;78.13;31.05;;;-1.30;99.90;;;;;;5053569;28;20029;-82
2023/03/02 06:05:40;;;;;;;75.78;28.83;;;-1.40;99.90;;;;;;5053412;28;20029;-82
2023/03/02 06:08:06;;;;;;;67.47;27.13;;;-1.40;99.90;;;;;;5050279;28;20028;-84
2023/03/02 06:10:33;;;;;;;64.35;27.08;;;-1.30;99.90;;;;;;5070165;28;20064;-85
2023/03/02 06:12:58;;;;;;;68.03;28.08;;;-1.30;99.90;;;;;;5037404;28;20032;-84
2023/03/02 06:15:28;;;;;;;66.63;26.80;;;-1.20;99.90;;;;;;5053284;28;20029;-84
2023/03/02 06:17:55;;;;;;;65.03;28.50;;;-1.10;99.90;;;;;;5053952;28;20084;-85
2023/03/02 06:20:30;;;;;;;72.55;28.65;;;-1.10;99.90;;;;;;5053647;28;20036;-85
2023/03/02 06:22:55;;;;;;;73.10;28.77;;;-1.10;99.90;;;;;;5053426;28;20032;-84
2023/03/02 06:25:23;;;;;;;64.97;27.90;;;-1.10;99.90;;;;;;5036815;28;20025;-85
2023/03/02 06:27:52;;;;;;;69.25;27.27;;;-1.10;99.90;;;;;;5053298;28;20033;-85
2023/03/02 06:30:23;;;;;;;72.30;29.08;;;-1.10;99.90;;;;;;5036814;28;20115;-85
2023/03/02 06:32:49;;;;;;;74.28;28.10;;;-1.10;99.90;;;;;;5053525;28;20366;-85
2023/03/02 06:35:16;;;;;;;74.75;27.92;;;-1.10;99.90;;;;;;5036297;28;20111;-85
2023/03/02 06:37:42;;;;;;;66.45;26.70;;;-1.10;99.90;;;;;;5053207;28;20035;-85
2023/03/02 06:40:12;;;;;;;70.30;27.85;;;-1.10;99.90;;;;;;5053530;28;20028;-85
2023/03/02 06:42:39;;;;;;;68.43;28.30;;;-1.10;99.90;;;;;;5036499;28;20029;-85
2023/03/02 06:45:06;;;;;;;65.63;27.52;;;-1.10;99.90;;;;;;5036641;28;20328;-85
2023/03/02 06:47:32;;;;;;;76.75;27.02;;;-1.00;99.90;;;;;;5036531;28;20117;-84
2023/03/02 06:49:58;;;;;;;70.10;27.52;;;-1.00;99.90;;;;;;5036533;28;20060;-85
2023/03/02 06:52:25;;;;;;;68.00;27.83;;;-0.90;99.90;;;;;;5036495;28;20082;-85
2023/03/02 06:54:50;;;;;;;68.45;26.92;;;-0.90;99.90;;;;;;5031390;28;20075;-85
2023/03/02 06:57:16;;;;;;;73.47;28.13;;;-0.80;99.90;;;;;;5053110;28;20473;-85
2023/03/02 06:59:42;;;;;;;63.92;27.05;;;-0.80;99.90;;;;;;5035990;28;20032;-85
2023/03/02 07:02:10;;;;;;;66.30;27.15;;;-0.70;99.90;;;;;;5052383;28;20064;-85
2023/03/02 07:04:35;;;;;;;69.28;27.73;;;-0.70;99.90;;;;;;5052409;28;20033;-85
2023/03/02 07:07:01;;;;;;;67.75;26.13;;;-0.60;99.90;;;;;;5035715;28;20029;-85
2023/03/02 07:09:29;;;;;;;66.65;28.08;;;-0.60;99.90;;;;;;5035768;28;20029;-85
2023/03/02 07:11:55;;;;;;;62.22;25.40;;;-0.50;99.90;;;;;;5035725;28;20029;-84
2023/03/02 07:14:21;;;;;;;62.85;26.38;;;-0.50;99.90;;;;;;5052321;28;20036;-85
2023/03/02 07:16:47;;;;;;;72.70;27.35;;;-0.40;99.90;;;;;;5030985;28;20392;-84
2023/03/02 07:19:13;;;;;;;66.13;27.33;;;-0.30;99.90;;;;;;5029471;28;20037;-85
2023/03/02 07:21:39;;;;;;;66.43;26.02;;;-0.30;99.90;;;;;;5053565;28;20091;-85
2023/03/02 07:24:05;;;;;;;65.15;26.92;;;-0.20;99.90;;;;;;5033490;28;20032;-84
2023/03/02 07:26:30;;;;;;;57.78;23.83;;;-0.10;99.90;;;;;;5047394;28;20025;-84
2023/03/02 07:28:58;;;;;;;57.33;26.15;;;0.00;99.90;;;;;;5032957;28;20025;-85
2023/03/02 07:31:25;;;;;;;60.95;25.70;;;0.10;99.90;;;;;;5061463;28;20025;-85
2023/03/02 07:33:51;;;;;;;55.33;26.02;;;0.10;99.90;;;;;;5029255;28;20029;-85
2023/03/02 07:36:16;;;;;;;66.72;26.13;;;0.20;99.90;;;;;;5033374;28;20037;-84
2023/03/02 07:38:42;;;;;;;55.10;25.42;;;0.20;99.90;;;;;;5033726;28;20443;-85
2023/03/02 07:41:09;;;;;;;63.42;26.05;;;0.30;99.90;;;;;;5031930;28;20113;-85
2023/03/02 07:43:35;;;;;;;61.50;25.13;;;0.30;99.90;;;;;;5057517;28;20035;-85
2023/03/02 07:46:16;;;;;;;57.53;25.20;;;0.50;99.90;;;;;;5048769;28;20021;-84
2023/03/02 07:48:42;;;;;;;58.35;24.48;;;0.60;99.90;;;;;;5052430;28;20029;-85
2023/03/02 07:51:07;;;;;;;60.95;24.80;;;0.70;99.90;;;;;;5034137;28;20047;-85
2023/03/02 07:53:33;;;;;;;56.03;23.92;;;0.70;99.90;;;;;;5051479;28;20037;-85
2023/03/02 07:56:01;;;;;;;54.63;23.98;;;0.80;99.90;;;;;;5050968;28;20587;-85
2023/03/02 07:58:26;;;;;;;56.08;23.92;;;0.80;99.90;;;;;;5048765;28;20063;-85
2023/03/02 08:00:52;;;;;;;61.80;25.17;;;0.90;99.90;;;;;;5041846;28;20025;-84
2023/03/02 08:03:18;;;;;;;51.45;22.85;;;1.00;99.90;;;;;;5034681;28;20468;-85
2023/03/02 08:05:44;;;;;;;59.78;25.52;;;1.10;99.90;;;;;;5032899;28;20063;-85
2023/03/02 08:08:10;;;;;;;53.17;22.27;;;1.20;99.90;;;;;;5050046;28;20488;-85
2023/03/02 08:10:36;;;;;;;49.13;21.63;;;1.40;99.90;;;;;;5033998;28;20104;-85
2023/03/02 08:13:03;;;;;;;52.85;22.58;;;1.50;99.90;;;;;;5040278;28;20025;-85
2023/03/02 08:15:29;;;;;;;53.78;21.10;;;1.60;99.90;;;;;;5044713;28;20029;-85
2023/03/02 08:17:54;;;;;;;51.17;21.38;;;1.70;99.90;;;;;;5049206;28;20032;-85
2023/03/02 08:20:20;;;;;;;47.97;21.65;;;1.90;99.90;;;;;;5043556;28;20029;-85
2023/03/02 08:22:46;;;;;;;49.15;20.85;;;2.00;99.90;;;;;;5049796;28;20061;-85
2023/03/02 08:25:11;;;;;;;42.72;19.58;;;2.10;99.90;;;;;;5050607;28;20036;-85
2023/03/02 08:27:39;;;;;;;44.67;20.65;;;2.20;99.90;;;;;;5044541;28;20041;-85
2023/03/02 08:30:06;;;;;;;48.95;21.70;;;2.30;99.90;;;;;;5032221;28;20075;-85
2023/03/02 08:32:33;;;;;;;42.10;19.60;;;2.40;99.90;;;;;;5037896;28;20095;-85
2023/03/02 08:34:59;;;;;;;47.30;20.83;;;2.40;99.90;;;;;;5062402;28;20099;-85
2023/03/02 08:37:24;;;;;;;50.67;21.00;;;2.40;99.90;;;;;;5035451;28;20021;-85
2023/03/02 08:39:50;;;;;;;47.28;21.88;;;2.50;99.90;;;;;;5037648;28;20021;-85
2023/03/02 08:42:16;;;;;;;43.60;19.92;;;2.60;99.90;;;;;;5037793;28;20116;-85
2023/03/02 08:44:42;;;;;;;52.28;21.35;;;2.60;99.90;;;;;;5023583;28;20044;-85
2023/03/02 08:47:08;;;;;;;52.90;22.88;;;2.70;99.90;;;;;;5069423;28;20037;-85
2023/03/02 08:49:36;;;;;;;50.70;22.35;;;2.80;99.90;;;;;;5076829;28;20041;-85
2023/03/02 08:52:03;;;;;;;48.78;22.92;;;2.80;99.90;;;;;;5048505;28;20025;-85
2023/03/02 08:54:29;;;;;;;45.78;21.58;;;2.90;99.90;;;;;;5038404;28;20025;-85
2023/03/02 08:56:55;;;;;;;43.17;19.45;;;3.00;99.90;;;;;;5042653;28;20053;-86
2023/03/02 08:59:21;;;;;;;44.95;20.80;;;3.10;99.90;;;;;;5038314;28;20087;-85
2023/03/02 09:01:46;;;;;;;49.65;22.92;;;3.10;99.90;;;;;;5045881;28;20083;-85
2023/03/02 09:05:09;;;;;;;52.80;21.27;;;3.10;99.90;;;;;;5033929;28;20044;-85
2023/03/02 09:07:34;;;;;;;47.47;19.95;;;3.20;99.90;;;;;;5056133;28;20037;-85
2023/03/02 09:10:00;;;;;;;46.88;20.90;;;3.20;99.90;;;;;;5066429;28;20115;-85
2023/03/02 09:12:26;;;;;;;45.50;21.05;;;3.30;99.90;;;;;;5044173;28;20056;-85
2023/03/02 09:14:51;;;;;;;39.92;19.73;;;3.40;99.90;;;;;;5038438;28;20032;-86
2023/03/02 09:17:17;;;;;;;50.95;20.25;;;3.50;99.90;;;;;;5055283;28;20101;-85
2023/03/02 09:19:43;;;;;;;49.33;21.85;;;3.60;99.90;;;;;;5037894;28;20056;-86
2023/03/02 09:22:08;;;;;;;41.35;19.63;;;3.70;99.90;;;;;;5053820;28;20017;-85
2023/03/02 09:24:35;;;;;;;50.03;23.85;;;3.70;99.90;;;;;;5054645;28;20408;-86
2023/03/02 09:27:02;;;;;;;54.13;19.75;;;3.90;99.90;;;;;;5054420;28;20479;-85
2023/03/02 09:29:28;;;;;;;52.13;19.92;;;4.00;99.90;;;;;;5037320;28;20032;-86
2023/03/02 09:31:53;;;;;;;42.20;19.17;;;4.10;99.90;;;;;;5037066;28;20040;-86
2023/03/02 09:34:19;;;;;;;44.92;19.50;;;4.20;99.90;;;;;;5036782;28;20476;-86
2023/03/02 09:36:54;;;;;;;38.88;18.15;;;4.60;99.90;;;;;;5054142;28;20039;-85
2023/03/02 09:39:20;;;;;;;39.70;18.55;;;5.30;99.90;;;;;;5036991;28;20400;-86
2023/03/02 09:42:09;;;;;;;32.72;16.50;;;6.00;99.90;;;;;;5037040;28;20033;-85
2023/03/02 09:44:55;;;;;;;35.58;16.70;;;6.70;99.90;;;;;;5034091;28;20897;-86
2023/03/02 09:47:27;;;;;;;36.30;17.63;;;7.40;99.90;;;;;;5066294;28;20777;-83
2023/03/02 09:50:17;;;;;;;31.08;16.38;;;8.00;99.90;;;;;;5051752;28;20037;-86
2023/03/02 09:53:06;;;;;;;35.25;16.83;;;8.50;99.90;;;;;;5054383;28;20029;-84
2023/03/02 09:55:35;;;;;;;32.92;16.88;;;9.40;99.90;;;;;;5027042;28;20047;-83
2023/03/02 09:58:05;;;;;;;33.38;16.60;;;9.10;99.90;;;;;;5070766;28;20028;-84
2023/03/02 10:00:35;;;;;;;31.15;15.73;;;8.90;99.90;;;;;;5037072;28;20128;-84
2023/03/02 10:03:05;;;;;;;44.50;15.65;;;9.10;99.90;;;;;;5028343;28;20392;-84
2023/03/02 10:05:39;;;;;;;35.20;15.52;;;9.20;99.90;;;;;;5049261;28;20029;-84
2023/03/02 10:08:12;;;;;;;32.00;16.45;;;9.80;99.90;;;;;;5036853;28;20112;-84
2023/03/02 10:10:53;;;;;;;27.33;14.35;;;10.00;99.90;;;;;;5043004;28;20536;-84
2023/03/02 10:13:23;;;;;;;35.15;15.48;;;9.50;99.90;;;;;;5054659;28;20022;-84
2023/03/02 10:15:59;;;;;;;32.95;16.13;;;10.00;99.90;;;;;;5031961;28;20033;-84
2023/03/02 10:19:06;;;;;;;36.03;16.67;;;10.10;99.90;;;;;;5042261;28;20028;-84
2023/03/02 10:21:41;;;;;;;36.20;17.58;;;10.60;99.90;;;;;;5055557;28;20140;-85
2023/03/02 10:24:48;;;;;;;32.63;15.48;;;10.10;99.90;;;;;;5065518;28;20033;-85
2023/03/02 10:27:28;;;;;;;47.65;17.45;;;10.00;99.90;;;;;;5050957;28;20059;-84
2023/03/02 10:30:06;;;;;;;36.08;16.35;;;10.40;99.90;;;;;;5056639;28;20029;-85
2023/03/02 10:32:36;;;;;;;27.48;14.90;;;10.60;99.90;;;;;;5054726;28;20124;-85
2023/03/02 10:35:19;;;;;;;28.02;14.32;;;10.80;99.90;;;;;;5050981;28;20025;-85
2023/03/02 10:38:15;;;;;;;35.83;17.70;;;10.90;99.90;;;;;;5048368;28;20030;-86
2023/03/02 10:41:02;;;;;;;26.85;15.65;;;10.90;99.90;;;;;;5024310;28;20807;-85
2023/03/02 10:43:59;;;;;;;30.63;17.35;;;11.00;99.90;;;;;;5036514;28;20059;-85
2023/03/02 10:46:25;;;;;;;38.60;18.15;;;10.70;99.90;;;;;;5032691;28;20476;-85
2023/03/02 10:48:57;;;;;;;26.38;15.57;;;10.10;99.90;;;;;;5048203;28;20018;-85
2023/03/02 10:51:28;;;;;;;27.27;15.02;;;10.50;99.90;;;;;;5050241;28;20023;-86
2023/03/02 10:54:12;;;;;;;25.92;15.43;;;10.70;99.90;;;;;;5028990;28;20396;-85
2023/03/02 10:56:41;;;;;;;35.40;15.52;;;11.10;99.60;;;;;;5038256;28;20041;-86
2023/03/02 10:59:28;;;;;;;29.25;15.32;;;11.00;99.20;;;;;;5044141;28;20028;-85
2023/03/02 11:02:09;;;;;;;28.63;14.95;;;10.60;99.90;;;;;;5077131;28;20032;-85
2023/03/02 11:04:34;;;;;;;29.40;15.45;;;10.70;99.90;;;;;;5064226;28;20061;-85
2023/03/02 11:07:27;;;;;;;26.85;15.43;;;10.40;99.90;;;;;;5056766;28;20064;-85
2023/03/02 11:10:02;;;;;;;30.23;13.40;;;10.40;99.90;;;;;;5047924;28;20076;-86
2023/03/02 11:12:29;;;;;;;28.45;14.80;;;10.40;99.90;;;;;;5058326;28;20404;-85
2023/03/02 11:15:27;;;;;;;27.23;14.10;;;10.80;99.90;;;;;;5037871;28;20033;-86
2023/03/02 11:18:03;;;;;;;30.73;13.73;;;10.90;99.90;;;;;;5045750;28;20032;-86
2023/03/02 11:20:37;;;;;;;30.38;12.98;;;11.00;99.90;;;;;;5046876;28;20082;-85
2023/03/02 11:23:28;;;;;;;27.00;12.88;;;11.20;99.90;;;;;;5034321;28;20037;-86
2023/03/02 11:25:59;;;;;;;33.92;14.57;;;11.30;99.90;;;;;;5035765;28;20032;-85
2023/03/02 11:28:40;;;;;;;19.67;11.32;;;10.80;99.90;;;;;;5028649;28;20120;-86
2023/03/02 11:31:30;;;;;;;21.52;12.25;;;11.20;99.90;;;;;;5051888;28;20037;-85
2023/03/02 11:34:26;;;;;;;28.90;12.05;;;11.80;98.80;;;;;;5051411;28;20750;-85
2023/03/02 11:37:26;;;;;;;42.67;14.20;;;11.70;99.40;;;;;;5029762;28;20122;-85
2023/03/02 11:40:07;;;;;;;22.85;13.20;;;11.80;98.00;;;;;;5034936;28;20028;-85
2023/03/02 11:42:38;;;;;;;33.30;14.40;;;11.90;97.40;;;;;;5052019;28;20065;-85
2023/03/02 11:45:26;;;;;;;26.65;13.60;;;12.30;97.30;;;;;;5046631;28;20116;-86
2023/03/02 11:48:06;;;;;;;30.48;15.10;;;12.50;96.80;;;;;;5051967;28;20033;-86
2023/03/02 11:50:37;;;;;;;27.77;15.15;;;12.60;94.80;;;;;;5051179;28;20127;-85
2023/03/02 11:53:10;;;;;;;26.13;14.70;;;12.30;96.50;;;;;;5050048;28;20028;-85
2023/03/02 11:55:48;;;;;;;24.70;14.35;;;12.50;95.90;;;;;;5034439;28;20071;-86
2023/03/02 11:58:27;;;;;;;38.78;15.32;;;12.30;95.50;;;;;;5067805;28;20025;-85
2023/03/02 12:00:53;;;;;;;28.73;14.85;;;12.50;95.50;;;;;;5051242;28;20561;-85
2023/03/02 12:03:43;;;;;;;29.52;14.90;;;12.50;95.20;;;;;;5034681;28;20049;-85
2023/03/02 12:06:21;;;;;;;23.45;14.40;;;12.70;94.90;;;;;;5067074;28;20060;-86
2023/03/02 12:09:33;;;;;;;29.35;14.15;;;12.90;94.70;;;;;;5051514;28;20099;-86
2023/03/02 12:12:23;;;;;;;29.85;13.48;;;12.90;94.00;;;;;;5051076;28;20037;-86
2023/03/02 12:14:48;;;;;;;27.90;14.38;;;13.20;94.10;;;;;;5051469;28;20472;-86
2023/03/02 12:17:24;;;;;;;27.25;14.80;;;13.30;93.80;;;;;;5034794;28;20692;-85
2023/03/02 12:19:53;;;;;;;34.50;14.80;;;13.20;93.30;;;;;;5051387;28;20435;-85
2023/03/02 12:22:28;;;;;;;29.20;14.60;;;12.90;92.90;;;;;;5035218;28;20108;-85
2023/03/02 12:25:24;;;;;;;49.08;18.30;;;12.80;93.90;;;;;;5035218;28;20035;-86
2023/03/02 12:27:52;;;;;;;33.17;15.40;;;13.10;93.60;;;;;;5034373;28;20094;-86
2023/03/02 12:30:22;;;;;;;32.60;13.73;;;13.00;94.20;;;;;;5052205;28;20759;-85
2023/03/02 12:33:04;;;;;;;30.77;13.63;;;12.70;94.30;;;;;;5034893;28;20804;-85
2023/03/02 12:35:32;;;;;;;22.38;13.82;;;12.90;94.80;;;;;;5051748;28;20464;-86
2023/03/02 12:38:26;;;;;;;24.50;13.48;;;13.20;94.40;;;;;;5034845;28;20060;-86
2023/03/02 12:41:19;;;;;;;30.35;13.95;;;13.00;93.80;;;;;;5034777;28;20033;-85
2023/03/02 12:44:07;;;;;;;34.00;14.48;;;12.70;94.00;;;;;;5052787;28;20025;-85
2023/03/02 12:46:35;;;;;;;27.63;14.15;;;12.80;94.30;;;;;;5050977;28;20124;-85
2023/03/02 12:49:37;;;;;;;30.48;13.90;;;12.90;93.50;;;;;;5032172;28;20715;-85